Time;durP1;ratioP1;P1;durP2;ratioP2;P2;SDS_P1;SDS_P2;PMS_P1;PMS_P2;Temp;Humidity;BMP_temperature;BMP_pressure;BME280_temperature;BME280_humidity;BME280_pressure;Samples;Min_cycle;Max_cycle;Signal;HPM_P1;HPM_P2
2022/10/20 00:01:50;;;;;;;;;;;19.90;43.00;;;;;;5031555;28;20274;-67
2022/10/20 00:04:17;;;;;;;;;;;19.90;43.00;;;;;;5031634;28;19971;-67
2022/10/20 00:06:46;;;;;;;;;;;19.90;43.10;;;;;;5032141;28;19921;-67
2022/10/20 00:09:13;;;;;;;;;;;19.90;43.10;;;;;;5033873;28;19954;-68
2022/10/20 00:11:40;;;;;;;;;;;19.90;43.00;;;;;;5030883;28;20347;-67
2022/10/20 00:14:06;;;;;;;;;;;19.90;43.00;;;;;;5033225;28;19975;-67
2022/10/20 00:16:34;;;;;;;;;;;19.90;42.90;;;;;;5032716;28;19921;-67
2022/10/20 00:19:01;;;;;;;;;;;19.90;43.00;;;;;;5034602;28;19936;-68
2022/10/20 00:21:28;;;;;;;;;;;19.90;43.00;;;;;;5035709;28;20248;-67
2022/10/20 00:23:56;;;;;;;;;;;19.90;42.90;;;;;;5037671;28;19921;-67
2022/10/20 00:26:25;;;;;;;;;;;19.90;42.90;;;;;;5036436;28;19967;-68
2022/10/20 00:28:52;;;;;;;;;;;19.90;42.90;;;;;;5037272;28;19921;-67
2022/10/20 00:31:19;;;;;;;;;;;19.80;42.80;;;;;;5035653;28;19928;-67
2022/10/20 00:33:49;;;;;;;;;;;19.80;42.80;;;;;;5037151;28;20363;-68
2022/10/20 00:36:18;;;;;;;;;;;19.80;42.80;;;;;;5035781;28;20012;-68
2022/10/20 00:38:44;;;;;;;;;;;19.80;43.00;;;;;;5035170;28;19921;-68
2022/10/20 00:41:13;;;;;;;;;;;19.80;42.90;;;;;;5036993;28;19921;-68
2022/10/20 00:43:40;;;;;;;;;;;19.80;42.90;;;;;;5034172;28;19921;-68
2022/10/20 00:46:07;;;;;;;;;;;19.80;42.90;;;;;;5030392;28;20432;-68
2022/10/20 00:48:36;;;;;;;;;;;19.80;42.80;;;;;;5036447;28;19921;-68
2022/10/20 00:51:03;;;;;;;;;;;19.80;42.80;;;;;;5036377;28;19921;-68
2022/10/20 00:53:29;;;;;;;;;;;19.80;42.80;;;;;;5017775;28;19921;-68
2022/10/20 00:55:56;;;;;;;;;;;19.80;42.80;;;;;;5035163;28;19925;-67
2022/10/20 00:58:26;;;;;;;;;;;19.80;42.80;;;;;;5034249;28;19952;-67
2022/10/20 01:00:53;;;;;;;;;;;19.80;42.90;;;;;;5033825;28;19921;-67
2022/10/20 01:03:24;;;;;;;;;;;19.80;42.80;;;;;;5033955;28;19968;-67
2022/10/20 01:05:51;;;;;;;;;;;19.80;42.80;;;;;;5023655;28;19959;-67
2022/10/20 01:08:18;;;;;;;;;;;19.80;42.80;;;;;;5038622;28;19925;-67
2022/10/20 01:10:46;;;;;;;;;;;19.80;42.80;;;;;;5033104;28;19921;-67
2022/10/20 01:13:14;;;;;;;;;;;19.80;42.80;;;;;;5034002;28;19924;-66
2022/10/20 01:15:43;;;;;;;;;;;19.80;42.70;;;;;;5035072;28;19925;-67
2022/10/20 01:18:12;;;;;;;;;;;19.80;42.70;;;;;;5035097;28;19971;-67
2022/10/20 01:20:54;;;;;;;;;;;19.80;42.70;;;;;;5033676;28;19922;-67
2022/10/20 01:23:30;;;;;;;;;;;19.70;42.70;;;;;;5015394;28;19971;-67
2022/10/20 01:26:03;;;;;;;;;;;19.70;42.60;;;;;;5033788;28;19921;-67
2022/10/20 01:28:33;;;;;;;;;;;19.70;42.60;;;;;;5032290;28;19925;-67
2022/10/20 01:31:01;;;;;;;;;;;19.70;42.50;;;;;;5032583;28;19979;-67
2022/10/20 01:33:29;;;;;;;;;;;19.70;42.50;;;;;;5033413;28;19921;-67
2022/10/20 01:35:58;;;;;;;;;;;19.70;42.50;;;;;;5033303;28;19921;-67
2022/10/20 01:38:27;;;;;;;;;;;19.70;42.50;;;;;;5036183;28;19921;-67
2022/10/20 01:40:54;;;;;;;;;;;19.70;42.50;;;;;;5033583;28;19921;-68
2022/10/20 01:43:21;;;;;;;;;;;19.70;42.40;;;;;;5032257;28;19963;-68
2022/10/20 01:45:49;;;;;;;;;;;19.70;42.40;;;;;;5032018;28;19921;-67
2022/10/20 01:48:16;;;;;;;;;;;19.70;42.50;;;;;;5034485;28;19925;-68
2022/10/20 01:50:43;;;;;;;;;;;19.70;42.40;;;;;;5032250;28;19921;-62
2022/10/20 01:53:10;;;;;;;;;;;19.70;42.50;;;;;;5032907;28;19960;-67
2022/10/20 01:55:37;;;;;;;;;;;19.70;42.50;;;;;;5034630;28;19928;-68
2022/10/20 01:58:21;;;;;;;;;;;19.70;42.40;;;;;;5032637;28;19975;-68
2022/10/20 02:00:49;;;;;;;;;;;19.70;42.40;;;;;;5033077;28;19921;-68
2022/10/20 02:03:24;;;;;;;;;;;19.70;42.40;;;;;;5033596;28;19925;-68
2022/10/20 02:05:53;;;;;;;;;;;19.70;42.40;;;;;;5032840;28;19972;-68
2022/10/20 02:08:20;;;;;;;;;;;19.60;42.30;;;;;;5035396;28;20043;-68
2022/10/20 02:10:47;;;;;;;;;;;19.60;42.20;;;;;;5033151;28;19921;-68
2022/10/20 02:13:14;;;;;;;;;;;19.60;42.30;;;;;;5032987;28;19979;-68
2022/10/20 02:15:42;;;;;;;;;;;19.60;42.30;;;;;;5032825;28;19967;-68
2022/10/20 02:18:10;;;;;;;;;;;19.60;42.30;;;;;;5035143;28;19987;-68
2022/10/20 02:20:36;;;;;;;;;;;19.60;42.20;;;;;;5032422;28;20012;-68
2022/10/20 02:23:04;;;;;;;;;;;19.60;42.20;;;;;;5033857;28;19921;-68
2022/10/20 02:25:31;;;;;;;;;;;19.60;42.20;;;;;;5035679;28;19921;-68
2022/10/20 02:27:57;;;;;;;;;;;19.60;42.20;;;;;;5033066;28;19925;-68
2022/10/20 02:30:24;;;;;;;;;;;19.60;42.20;;;;;;5033731;28;19957;-69
2022/10/20 02:32:51;;;;;;;;;;;19.60;42.20;;;;;;5033688;28;19967;-68
2022/10/20 02:35:20;;;;;;;;;;;19.60;42.20;;;;;;5033143;28;19968;-68
2022/10/20 02:37:46;;;;;;;;;;;19.60;42.20;;;;;;5033497;28;19974;-68
2022/10/20 02:40:13;;;;;;;;;;;19.60;42.30;;;;;;5031791;28;19975;-68
2022/10/20 02:42:42;;;;;;;;;;;19.60;42.20;;;;;;5032953;28;19931;-68
2022/10/20 02:45:09;;;;;;;;;;;19.60;42.10;;;;;;5031540;28;19957;-68
2022/10/20 02:47:35;;;;;;;;;;;19.60;42.10;;;;;;5031301;28;19921;-68
2022/10/20 02:50:02;;;;;;;;;;;19.60;42.20;;;;;;5032635;28;20433;-68
2022/10/20 02:52:30;;;;;;;;;;;19.60;42.10;;;;;;5030706;28;19921;-67
2022/10/20 02:54:57;;;;;;;;;;;19.60;42.10;;;;;;5032741;28;19964;-68
2022/10/20 02:57:24;;;;;;;;;;;19.60;42.10;;;;;;5032199;28;19921;-68
2022/10/20 02:59:50;;;;;;;;;;;19.60;42.00;;;;;;5033423;28;19925;-67
2022/10/20 03:04:52;;;;;;;;;;;19.60;42.00;;;;;;5414647;22;20030;-69
2022/10/20 03:07:19;;;;;;;;;;;19.60;42.00;;;;;;5026650;28;19929;-69
2022/10/20 03:09:47;;;;;;;;;;;19.60;42.00;;;;;;5034003;28;19929;-69
2022/10/20 03:12:14;;;;;;;;;;;19.50;41.90;;;;;;5030052;28;19979;-69
2022/10/20 03:14:41;;;;;;;;;;;19.50;41.90;;;;;;5031991;28;20417;-70
2022/10/20 03:17:08;;;;;;;;;;;19.50;41.90;;;;;;5030004;28;19972;-69
2022/10/20 03:19:35;;;;;;;;;;;19.50;42.40;;;;;;5030467;28;19935;-69
2022/10/20 03:22:01;;;;;;;;;;;19.50;41.80;;;;;;5031243;28;20354;-69
2022/10/20 03:24:28;;;;;;;;;;;19.50;41.80;;;;;;5029621;28;19960;-69
2022/10/20 03:26:56;;;;;;;;;;;19.50;41.80;;;;;;5031271;28;19957;-69
2022/10/20 03:29:23;;;;;;;;;;;19.50;41.80;;;;;;5030946;28;19925;-69
2022/10/20 03:31:49;;;;;;;;;;;19.50;41.80;;;;;;5030298;28;19925;-69
2022/10/20 03:34:16;;;;;;;;;;;19.50;41.80;;;;;;5033502;28;19925;-69
2022/10/20 03:36:43;;;;;;;;;;;19.50;41.80;;;;;;5030022;28;19929;-69
2022/10/20 03:39:09;;;;;;;;;;;19.50;41.80;;;;;;5031127;28;19968;-69
2022/10/20 03:41:36;;;;;;;;;;;19.50;41.70;;;;;;5028744;28;19925;-69
2022/10/20 03:44:04;;;;;;;;;;;19.50;41.70;;;;;;5033630;28;19925;-69
2022/10/20 03:46:31;;;;;;;;;;;19.50;41.60;;;;;;5030421;28;19967;-69
2022/10/20 03:48:57;;;;;;;;;;;19.50;41.70;;;;;;5030446;28;19972;-69
2022/10/20 03:51:24;;;;;;;;;;;19.50;41.70;;;;;;5028941;28;20014;-69
2022/10/20 03:53:50;;;;;;;;;;;19.50;41.60;;;;;;5036233;28;20035;-69
2022/10/20 03:56:19;;;;;;;;;;;19.50;41.70;;;;;;5051391;28;19948;-70
2022/10/20 03:58:46;;;;;;;;;;;19.50;41.70;;;;;;5039487;28;19924;-68
2022/10/20 04:01:14;;;;;;;;;;;19.50;41.60;;;;;;5066898;28;20023;-68
2022/10/20 04:03:41;;;;;;;;;;;19.50;41.60;;;;;;5036866;28;19925;-69
2022/10/20 04:06:08;;;;;;;;;;;19.50;41.60;;;;;;5050423;28;20036;-69
2022/10/20 04:08:35;;;;;;;;;;;19.40;41.60;;;;;;5046436;28;19928;-69
2022/10/20 04:11:01;;;;;;;;;;;19.40;41.60;;;;;;5021983;28;20016;-68
2022/10/20 04:13:28;;;;;;;;;;;19.40;41.60;;;;;;5028982;28;19925;-69
2022/10/20 04:15:55;;;;;;;;;;;19.40;41.60;;;;;;5011748;28;19926;-69
2022/10/20 04:18:23;;;;;;;;;;;19.40;41.60;;;;;;5024946;28;19967;-69
2022/10/20 04:20:50;;;;;;;;;;;19.40;41.60;;;;;;5064586;28;19933;-69
2022/10/20 04:23:16;;;;;;;;;;;19.40;41.60;;;;;;5029972;28;20298;-69
2022/10/20 04:25:46;;;;;;;;;;;19.40;41.60;;;;;;5037318;28;19925;-69
2022/10/20 04:28:13;;;;;;;;;;;19.40;41.50;;;;;;5044990;28;20306;-69
2022/10/20 04:30:39;;;;;;;;;;;19.40;41.50;;;;;;5048282;28;20020;-68
2022/10/20 04:33:06;;;;;;;;;;;19.40;41.50;;;;;;5048002;28;19988;-69
2022/10/20 04:35:34;;;;;;;;;;;19.40;41.50;;;;;;5025543;28;19925;-69
2022/10/20 04:38:01;;;;;;;;;;;19.40;41.50;;;;;;5020829;28;19967;-69
2022/10/20 04:40:28;;;;;;;;;;;19.40;41.60;;;;;;5030767;28;19937;-69
2022/10/20 04:42:54;;;;;;;;;;;19.40;41.50;;;;;;5030213;28;19968;-69
2022/10/20 04:45:21;;;;;;;;;;;19.40;41.40;;;;;;5029030;28;19929;-69
2022/10/20 04:47:48;;;;;;;;;;;19.40;41.50;;;;;;5011327;28;19972;-69
2022/10/20 04:50:14;;;;;;;;;;;19.40;41.50;;;;;;5030971;28;19925;-68
2022/10/20 04:52:43;;;;;;;;;;;19.40;41.60;;;;;;5011697;28;20345;-69
2022/10/20 04:55:10;;;;;;;;;;;19.40;41.60;;;;;;5054782;28;19956;-68
2022/10/20 04:57:36;;;;;;;;;;;19.40;41.60;;;;;;5048176;28;19931;-69
2022/10/20 05:00:03;;;;;;;;;;;19.40;41.60;;;;;;5041355;28;19964;-69
2022/10/20 05:02:30;;;;;;;;;;;19.40;41.60;;;;;;5027625;28;19929;-68
2022/10/20 05:04:57;;;;;;;;;;;19.40;41.60;;;;;;5041831;28;19925;-70
2022/10/20 05:07:24;;;;;;;;;;;19.40;41.60;;;;;;5062125;28;19983;-69
2022/10/20 05:09:52;;;;;;;;;;;19.40;41.50;;;;;;5033153;28;19925;-70
2022/10/20 05:12:18;;;;;;;;;;;19.40;41.50;;;;;;5031473;28;19940;-69
2022/10/20 05:14:45;;;;;;;;;;;19.40;41.40;;;;;;5041036;28;20339;-70
2022/10/20 05:17:12;;;;;;;;;;;19.40;41.50;;;;;;5030719;28;20249;-72
2022/10/20 05:19:38;;;;;;;;;;;19.40;42.10;;;;;;5034778;28;20302;-61
2022/10/20 05:22:05;;;;;;;;;;;19.40;41.70;;;;;;5032656;28;19941;-62
2022/10/20 05:24:32;;;;;;;;;;;19.40;42.00;;;;;;5034165;28;20020;-62
2022/10/20 05:27:00;;;;;;;;;;;19.40;42.30;;;;;;5033295;28;19940;-62
2022/10/20 05:29:27;;;;;;;;;;;19.50;42.60;;;;;;5032995;28;20019;-63
2022/10/20 05:31:53;;;;;;;;;;;19.50;42.80;;;;;;5033807;28;19965;-62
2022/10/20 05:34:20;;;;;;;;;;;19.50;42.90;;;;;;5035893;28;20015;-61
2022/10/20 05:36:47;;;;;;;;;;;19.50;42.90;;;;;;5068708;28;19925;-65
2022/10/20 05:39:13;;;;;;;;;;;19.60;43.10;;;;;;5030050;28;19940;-63
2022/10/20 05:41:40;;;;;;;;;;;19.60;43.20;;;;;;5046476;28;19972;-63
2022/10/20 05:44:11;;;;;;;;;;;19.60;43.20;;;;;;5031334;28;20078;-62
2022/10/20 05:46:40;;;;;;;;;;;19.70;43.40;;;;;;5030493;28;19925;-63
2022/10/20 05:49:06;;;;;;;;;;;19.70;43.50;;;;;;5017081;28;19925;-62
2022/10/20 05:51:34;;;;;;;;;;;19.70;43.50;;;;;;5048327;28;19932;-62
2022/10/20 05:54:00;;;;;;;;;;;19.70;43.60;;;;;;5032100;28;19929;-62
2022/10/20 05:56:27;;;;;;;;;;;19.70;43.70;;;;;;5049697;28;19924;-62
2022/10/20 05:58:54;;;;;;;;;;;19.80;43.80;;;;;;5031501;28;19931;-62
2022/10/20 06:01:23;;;;;;;;;;;19.80;43.80;;;;;;5029884;28;19936;-62
2022/10/20 06:03:50;;;;;;;;;;;19.80;43.90;;;;;;5028363;28;19941;-62
2022/10/20 06:06:17;;;;;;;;;;;19.80;43.90;;;;;;5042559;28;19932;-62
2022/10/20 06:08:43;;;;;;;;;;;19.80;44.00;;;;;;5048534;28;19980;-62
2022/10/20 06:11:11;;;;;;;;;;;19.80;43.90;;;;;;5053408;28;19929;-62
2022/10/20 06:13:37;;;;;;;;;;;19.90;44.00;;;;;;5045913;28;20020;-62
2022/10/20 06:16:04;;;;;;;;;;;19.80;43.90;;;;;;5031608;28;19957;-62
2022/10/20 06:18:32;;;;;;;;;;;19.90;44.00;;;;;;5031812;28;20023;-62
2022/10/20 06:20:59;;;;;;;;;;;19.90;44.10;;;;;;5031181;28;20382;-62
2022/10/20 06:23:26;;;;;;;;;;;19.90;44.10;;;;;;5047991;28;19979;-62
2022/10/20 06:25:53;;;;;;;;;;;19.90;44.10;;;;;;5047123;28;19956;-62
2022/10/20 06:28:20;;;;;;;;;;;19.90;44.20;;;;;;5037074;28;19927;-62
2022/10/20 06:30:47;;;;;;;;;;;19.90;44.20;;;;;;5043142;28;19925;-62
2022/10/20 06:33:15;;;;;;;;;;;19.90;44.20;;;;;;5051287;28;19931;-63
2022/10/20 06:35:43;;;;;;;;;;;19.90;44.20;;;;;;5032189;28;19925;-62
2022/10/20 06:38:10;;;;;;;;;;;20.00;44.30;;;;;;5046496;28;19967;-63
2022/10/20 06:40:37;;;;;;;;;;;20.00;44.40;;;;;;5045437;28;19951;-63
2022/10/20 06:43:03;;;;;;;;;;;20.00;44.60;;;;;;5024433;28;20434;-63
2022/10/20 06:45:30;;;;;;;;;;;20.00;44.40;;;;;;5021137;28;19955;-63
2022/10/20 06:47:57;;;;;;;;;;;20.00;44.40;;;;;;5029751;28;19932;-63
2022/10/20 06:50:24;;;;;;;;;;;20.00;44.40;;;;;;5034164;28;20008;-62
2022/10/20 06:52:55;;;;;;;;;;;20.00;44.40;;;;;;5011813;28;19972;-62
2022/10/20 06:55:21;;;;;;;;;;;20.00;44.40;;;;;;5031390;28;19929;-63
2022/10/20 06:57:48;;;;;;;;;;;20.00;44.50;;;;;;5031439;28;19929;-62
2022/10/20 07:00:15;;;;;;;;;;;20.00;44.50;;;;;;5030564;28;19948;-62
2022/10/20 07:02:44;;;;;;;;;;;20.00;44.50;;;;;;5033888;28;20004;-62
2022/10/20 07:05:11;;;;;;;;;;;20.00;44.50;;;;;;5045827;28;19929;-62
2022/10/20 07:07:38;;;;;;;;;;;20.00;44.60;;;;;;5032433;28;19980;-62
2022/10/20 07:10:06;;;;;;;;;;;20.00;44.60;;;;;;5022827;28;19964;-62
2022/10/20 07:12:33;;;;;;;;;;;20.10;44.70;;;;;;5029715;28;19925;-62
2022/10/20 07:15:00;;;;;;;;;;;20.00;44.50;;;;;;5036044;28;19929;-62
2022/10/20 07:17:26;;;;;;;;;;;20.10;44.70;;;;;;5066167;28;19925;-62
2022/10/20 07:19:53;;;;;;;;;;;20.10;44.70;;;;;;5032113;28;20023;-62
2022/10/20 07:22:20;;;;;;;;;;;20.10;44.70;;;;;;5030762;28;19963;-64
2022/10/20 07:24:46;;;;;;;;;;;20.10;44.70;;;;;;5032059;28;19978;-64
2022/10/20 07:27:16;;;;;;;;;;;20.10;44.70;;;;;;5042304;28;19979;-64
2022/10/20 07:29:43;;;;;;;;;;;20.10;44.80;;;;;;5046244;28;20370;-64
2022/10/20 07:32:10;;;;;;;;;;;20.10;44.80;;;;;;5047355;28;19979;-64
2022/10/20 07:34:36;;;;;;;;;;;20.10;44.80;;;;;;5030249;28;20602;-63
2022/10/20 07:37:03;;;;;;;;;;;20.10;44.80;;;;;;5027693;28;19964;-64
2022/10/20 07:39:30;;;;;;;;;;;20.10;44.80;;;;;;5030288;28;19956;-62
2022/10/20 07:41:56;;;;;;;;;;;20.10;44.80;;;;;;5030019;28;19952;-64
2022/10/20 07:44:24;;;;;;;;;;;20.10;44.80;;;;;;5029607;28;19921;-64
2022/10/20 07:46:51;;;;;;;;;;;20.10;44.80;;;;;;5031890;28;19960;-63
2022/10/20 07:49:18;;;;;;;;;;;20.10;44.90;;;;;;5030529;28;19967;-64
2022/10/20 07:51:44;;;;;;;;;;;20.10;44.90;;;;;;5063650;28;20385;-64
2022/10/20 07:54:11;;;;;;;;;;;20.10;44.90;;;;;;5050665;28;19978;-64
2022/10/20 07:56:38;;;;;;;;;;;20.10;44.90;;;;;;5066999;28;19921;-63
2022/10/20 07:59:05;;;;;;;;;;;20.10;44.90;;;;;;5049142;28;19921;-62
2022/10/20 08:01:33;;;;;;;;;;;20.10;44.90;;;;;;5047508;28;19929;-63
2022/10/20 08:03:59;;;;;;;;;;;20.10;45.00;;;;;;5027192;28;20019;-64
2022/10/20 08:06:26;;;;;;;;;;;20.10;45.00;;;;;;5027474;28;19921;-64
2022/10/20 08:08:53;;;;;;;;;;;20.10;45.00;;;;;;5027583;28;20016;-64
2022/10/20 08:11:20;;;;;;;;;;;20.20;45.10;;;;;;5019337;28;20027;-64
2022/10/20 08:13:46;;;;;;;;;;;20.20;45.10;;;;;;5029776;28;20016;-64
2022/10/20 08:16:13;;;;;;;;;;;20.20;45.10;;;;;;5031443;28;19983;-64
2022/10/20 08:18:42;;;;;;;;;;;20.20;45.10;;;;;;5046486;28;19921;-63
2022/10/20 08:21:09;;;;;;;;;;;20.20;45.10;;;;;;5056753;28;19921;-64
2022/10/20 08:23:37;;;;;;;;;;;20.20;45.20;;;;;;5066756;28;19967;-63
2022/10/20 08:26:04;;;;;;;;;;;20.20;45.20;;;;;;5046776;28;19921;-64
2022/10/20 08:28:31;;;;;;;;;;;20.20;45.20;;;;;;5031735;28;19929;-64
2022/10/20 08:30:58;;;;;;;;;;;20.20;45.20;;;;;;5026730;28;19921;-64
2022/10/20 08:33:24;;;;;;;;;;;20.20;45.20;;;;;;5026627;28;19925;-64
2022/10/20 08:35:52;;;;;;;;;;;20.20;45.20;;;;;;5039704;28;19967;-63
2022/10/20 08:38:19;;;;;;;;;;;20.20;45.20;;;;;;5055337;28;19972;-64
2022/10/20 08:40:46;;;;;;;;;;;20.20;45.20;;;;;;5014279;28;19921;-64
2022/10/20 08:43:13;;;;;;;;;;;20.20;45.30;;;;;;5030863;28;19957;-64
2022/10/20 08:45:40;;;;;;;;;;;20.20;45.30;;;;;;5039769;28;19960;-64
2022/10/20 08:48:08;;;;;;;;;;;20.20;45.30;;;;;;5052755;28;20016;-64
2022/10/20 08:50:37;;;;;;;;;;;20.20;45.30;;;;;;5053019;28;19967;-62
2022/10/20 08:53:05;;;;;;;;;;;20.30;45.40;;;;;;5069773;28;20373;-62
2022/10/20 08:55:32;;;;;;;;;;;20.20;45.40;;;;;;5052541;28;19924;-62
2022/10/20 08:58:00;;;;;;;;;;;20.20;45.40;;;;;;5051091;28;20011;-62
2022/10/20 09:00:27;;;;;;;;;;;20.30;45.40;;;;;;5049602;28;19928;-62
2022/10/20 09:02:54;;;;;;;;;;;20.30;45.40;;;;;;5051594;28;20020;-63
2022/10/20 09:05:24;;;;;;;;;;;20.20;45.40;;;;;;5035058;28;19921;-63
2022/10/20 09:07:51;;;;;;;;;;;20.20;45.40;;;;;;5033315;28;19929;-63
2022/10/20 09:10:23;;;;;;;;;;;20.30;45.50;;;;;;5034829;28;19921;-62
2022/10/20 09:12:50;;;;;;;;;;;20.30;45.50;;;;;;5053632;28;20023;-62
2022/10/20 09:15:19;;;;;;;;;;;20.30;45.60;;;;;;5053511;28;19963;-62
2022/10/20 09:17:47;;;;;;;;;;;20.30;45.50;;;;;;5038723;28;19921;-63
2022/10/20 09:20:15;;;;;;;;;;;20.30;45.60;;;;;;5034551;28;19955;-62
2022/10/20 09:22:42;;;;;;;;;;;20.30;45.60;;;;;;5050084;28;19975;-63
2022/10/20 09:25:12;;;;;;;;;;;20.30;45.60;;;;;;5033700;28;20363;-62
2022/10/20 09:27:41;;;;;;;;;;;20.30;45.60;;;;;;5043374;28;20006;-64
2022/10/20 09:30:25;;;;;;;;;;;20.30;45.60;;;;;;5029439;28;20303;-64
2022/10/20 09:32:51;;;;;;;;;;;20.30;45.60;;;;;;5013117;28;20016;-64
2022/10/20 09:35:19;;;;;;;;;;;20.30;45.60;;;;;;5014892;28;20002;-64
2022/10/20 09:37:47;;;;;;;;;;;20.30;45.60;;;;;;5049359;28;19921;-64
2022/10/20 09:40:15;;;;;;;;;;;20.30;45.70;;;;;;5032318;28;19928;-64
2022/10/20 09:42:44;;;;;;;;;;;20.30;45.70;;;;;;5051109;28;19925;-64
2022/10/20 09:45:16;;;;;;;;;;;20.30;45.70;;;;;;5064200;28;19960;-64
2022/10/20 09:47:43;;;;;;;;;;;20.30;45.70;;;;;;5049576;28;19921;-64
2022/10/20 09:50:16;;;;;;;;;;;20.30;45.70;;;;;;5033750;28;19921;-64
2022/10/20 09:52:46;;;;;;;;;;;20.30;45.70;;;;;;5065967;28;20023;-64
2022/10/20 09:55:27;;;;;;;;;;;20.30;45.70;;;;;;5043818;28;19922;-63
2022/10/20 09:57:56;;;;;;;;;;;20.40;45.80;;;;;;5052233;28;20007;-64
2022/10/20 10:00:23;;;;;;;;;;;20.30;45.80;;;;;;5045175;28;19992;-64
2022/10/20 10:02:50;;;;;;;;;;;20.40;45.80;;;;;;5014050;28;20024;-64
2022/10/20 10:05:19;;;;;;;;;;;20.30;45.80;;;;;;5034515;28;19964;-64
2022/10/20 10:07:45;;;;;;;;;;;20.40;45.90;;;;;;5053605;28;19928;-64
2022/10/20 10:10:23;;;;;;;;;;;20.30;45.80;;;;;;5052185;28;19928;-64
2022/10/20 10:12:51;;;;;;;;;;;20.40;46.40;;;;;;5052117;28;19920;-63
2022/10/20 10:15:25;;;;;;;;;;;20.40;45.90;;;;;;5036578;28;20048;-63
2022/10/20 10:17:51;;;;;;;;;;;20.40;45.90;;;;;;5047536;28;19971;-63
2022/10/20 10:20:34;;;;;;;;;;;20.40;45.90;;;;;;5033374;28;19944;-63
2022/10/20 10:23:23;;;;;;;;;;;20.40;45.90;;;;;;5039346;28;20375;-63
2022/10/20 10:25:49;;;;;;;;;;;20.40;45.90;;;;;;5027245;28;19925;-63
2022/10/20 10:28:30;;;;;;;;;;;20.40;45.90;;;;;;5101718;22;19936;-66
2022/10/20 10:31:08;;;;;;;;;;;20.40;45.90;;;;;;5041773;22;19933;-63
2022/10/20 10:33:35;;;;;;;;;;;20.40;45.90;;;;;;5050201;28;19925;-62
2022/10/20 10:36:02;;;;;;;;;;;20.40;46.00;;;;;;5045448;28;20024;-62
2022/10/20 10:38:29;;;;;;;;;;;20.40;46.00;;;;;;5049316;28;19931;-63
2022/10/20 10:40:58;;;;;;;;;;;20.40;46.00;;;;;;5046277;28;20011;-63
2022/10/20 10:43:28;;;;;;;;;;;20.40;46.00;;;;;;5049540;28;19927;-63
2022/10/20 10:45:56;;;;;;;;;;;20.40;46.00;;;;;;5051312;28;19956;-62
2022/10/20 10:48:41;;;;;;;;;;;20.40;46.00;;;;;;5030077;28;19967;-62
2022/10/20 10:51:09;;;;;;;;;;;20.40;46.00;;;;;;5031396;28;20020;-63
2022/10/20 10:53:40;;;;;;;;;;;20.40;46.00;;;;;;5029902;28;20024;-63
2022/10/20 10:56:08;;;;;;;;;;;20.40;46.00;;;;;;5030862;28;19921;-63
2022/10/20 10:58:43;;;;;;;;;;;20.40;46.00;;;;;;5048978;28;19972;-63
2022/10/20 11:01:13;;;;;;;;;;;20.40;46.10;;;;;;5049761;28;19967;-63
2022/10/20 11:04:04;;;;;;;;;;;20.40;46.10;;;;;;5049531;28;19921;-63
2022/10/20 11:06:32;;;;;;;;;;;20.40;46.10;;;;;;5032490;28;20278;-63
2022/10/20 11:09:02;;;;;;;;;;;20.40;46.10;;;;;;5046543;28;19920;-63
2022/10/20 11:11:32;;;;;;;;;;;20.40;46.20;;;;;;5032784;28;19951;-63
2022/10/20 11:14:04;;;;;;;;;;;20.40;46.10;;;;;;5049704;28;19982;-63
2022/10/20 11:16:32;;;;;;;;;;;20.40;46.10;;;;;;5040028;28;19921;-63
2022/10/20 11:19:17;;;;;;;;;;;20.50;46.20;;;;;;5047333;28;19935;-63
2022/10/20 11:21:47;;;;;;;;;;;20.40;46.20;;;;;;5044890;28;19928;-63
2022/10/20 11:24:23;;;;;;;;;;;20.40;46.20;;;;;;5045181;28;20286;-63
2022/10/20 11:26:53;;;;;;;;;;;20.40;46.20;;;;;;5049263;28;20366;-63
2022/10/20 11:29:21;;;;;;;;;;;20.40;46.20;;;;;;5049043;28;19955;-63
2022/10/20 11:31:49;;;;;;;;;;;20.50;46.20;;;;;;5045248;28;20011;-63
2022/10/20 11:34:20;;;;;;;;;;;20.40;46.20;;;;;;5048720;28;21234;-63
2022/10/20 11:36:47;;;;;;;;;;;20.40;46.20;;;;;;5052996;28;20011;-63
2022/10/20 11:39:15;;;;;;;;;;;20.50;46.30;;;;;;5062211;28;19921;-63
2022/10/20 11:41:43;;;;;;;;;;;20.40;46.30;;;;;;5034197;28;19921;-63
2022/10/20 11:44:12;;;;;;;;;;;20.40;46.30;;;;;;5048948;28;19928;-63
2022/10/20 11:46:40;;;;;;;;;;;20.40;46.30;;;;;;5046541;28;20138;-63
2022/10/20 11:49:07;;;;;;;;;;;20.40;46.30;;;;;;5049123;28;19967;-63
2022/10/20 11:51:46;;;;;;;;;;;20.40;46.30;;;;;;5048562;28;20156;-63
2022/10/20 11:54:18;;;;;;;;;;;20.50;46.40;;;;;;5050656;28;20159;-63
2022/10/20 11:56:50;;;;;;;;;;;20.50;46.40;;;;;;5038810;28;19967;-63
2022/10/20 11:59:38;;;;;;;;;;;20.50;46.40;;;;;;5048512;28;19920;-64
2022/10/20 12:02:17;;;;;;;;;;;20.50;46.40;;;;;;5049851;28;19960;-63
2022/10/20 12:04:49;;;;;;;;;;;20.50;46.40;;;;;;5034139;28;19921;-63
2022/10/20 12:07:31;;;;;;;;;;;20.50;46.40;;;;;;5035402;28;19925;-63
2022/10/20 12:10:15;;;;;;;;;;;20.50;46.40;;;;;;5046847;28;19925;-63
2022/10/20 12:12:45;;;;;;;;;;;20.50;46.40;;;;;;5046993;28;19975;-63
2022/10/20 12:15:18;;;;;;;;;;;20.50;46.50;;;;;;5050944;28;20015;-63
2022/10/20 12:17:45;;;;;;;;;;;20.50;46.40;;;;;;5051782;28;20388;-63
2022/10/20 12:20:36;;;;;;;;;;;20.50;46.50;;;;;;5051381;28;19924;-63
2022/10/20 12:23:03;;;;;;;;;;;20.50;46.50;;;;;;5046069;28;19927;-63
2022/10/20 12:25:37;;;;;;;;;;;20.50;46.50;;;;;;5052721;28;19920;-63
2022/10/20 12:28:23;;;;;;;;;;;20.50;46.50;;;;;;5052446;28;19920;-63
2022/10/20 12:31:03;;;;;;;;;;;20.60;46.60;;;;;;5032693;28;20346;-63
2022/10/20 12:33:34;;;;;;;;;;;20.50;46.50;;;;;;5048153;28;19920;-63
2022/10/20 12:36:13;;;;;;;;;;;20.50;46.50;;;;;;5051063;28;19964;-63
2022/10/20 12:38:40;;;;;;;;;;;20.50;46.60;;;;;;5049261;28;19956;-63
2022/10/20 12:41:06;;;;;;;;;;;20.50;46.50;;;;;;5053689;28;19920;-63
2022/10/20 12:43:34;;;;;;;;;;;20.50;46.60;;;;;;5051720;28;19963;-63
2022/10/20 12:46:16;;;;;;;;;;;20.50;46.60;;;;;;5048390;28;19921;-63
2022/10/20 12:48:44;;;;;;;;;;;20.50;46.60;;;;;;5046731;28;19964;-63
2022/10/20 12:51:21;;;;;;;;;;;20.50;46.60;;;;;;5032344;28;20350;-63
2022/10/20 12:53:52;;;;;;;;;;;20.50;46.60;;;;;;5050879;28;19921;-63
2022/10/20 12:56:19;;;;;;;;;;;20.50;46.60;;;;;;5044151;28;20333;-63
2022/10/20 12:59:01;;;;;;;;;;;20.50;46.60;;;;;;5063983;28;20019;-63
2022/10/20 13:01:29;;;;;;;;;;;20.60;46.70;;;;;;5050138;28;19959;-63
2022/10/20 13:03:55;;;;;;;;;;;20.50;46.70;;;;;;5070859;28;19920;-63
2022/10/20 13:06:41;;;;;;;;;;;20.50;46.70;;;;;;5063782;28;19951;-63
2022/10/20 13:09:18;;;;;;;;;;;20.50;46.70;;;;;;5051844;28;20359;-63
2022/10/20 13:11:45;;;;;;;;;;;20.50;46.70;;;;;;5051822;28;20269;-62
2022/10/20 13:14:28;;;;;;;;;;;20.50;46.70;;;;;;5052078;28;19943;-62
2022/10/20 13:16:59;;;;;;;;;;;20.60;46.80;;;;;;5032137;28;20007;-63
2022/10/20 13:19:29;;;;;;;;;;;20.60;46.80;;;;;;5031917;28;19967;-63
2022/10/20 13:21:55;;;;;;;;;;;20.60;46.80;;;;;;5047410;28;19960;-63
2022/10/20 13:24:22;;;;;;;;;;;20.60;46.80;;;;;;5062979;28;19960;-63
2022/10/20 13:26:50;;;;;;;;;;;20.60;46.80;;;;;;5046935;28;20003;-63
2022/10/20 13:29:18;;;;;;;;;;;20.60;46.80;;;;;;5050713;28;19925;-63
2022/10/20 13:31:47;;;;;;;;;;;20.60;46.90;;;;;;5051445;28;19936;-63
2022/10/20 13:34:16;;;;;;;;;;;20.60;46.80;;;;;;5036900;28;19928;-63
2022/10/20 13:36:46;;;;;;;;;;;20.60;46.90;;;;;;5051512;28;19995;-63
2022/10/20 13:39:14;;;;;;;;;;;20.60;46.80;;;;;;5068966;28;20374;-63
2022/10/20 13:41:41;;;;;;;;;;;20.60;46.90;;;;;;5068182;28;19943;-63
2022/10/20 13:44:10;;;;;;;;;;;20.60;46.90;;;;;;5049426;28;19971;-63
2022/10/20 13:46:43;;;;;;;;;;;20.60;46.90;;;;;;5038000;28;19929;-63
2022/10/20 13:49:13;;;;;;;;;;;20.60;46.90;;;;;;5048529;28;19921;-63
2022/10/20 13:51:42;;;;;;;;;;;20.60;46.90;;;;;;5032208;28;20018;-63
2022/10/20 13:54:13;;;;;;;;;;;20.60;47.00;;;;;;5047864;28;20349;-63
2022/10/20 13:56:42;;;;;;;;;;;20.60;46.90;;;;;;5046317;28;20070;-62
2022/10/20 13:59:19;;;;;;;;;;;20.60;47.00;;;;;;5051281;28;20422;-63
2022/10/20 14:01:46;;;;;;;;;;;20.60;47.00;;;;;;5052400;28;19921;-63
2022/10/20 14:04:19;;;;;;;;;;;20.60;47.00;;;;;;5052433;28;19967;-63
2022/10/20 14:06:47;;;;;;;;;;;20.70;47.10;;;;;;5033186;28;19957;-63
2022/10/20 14:09:15;;;;;;;;;;;20.60;47.00;;;;;;5062184;28;19920;-63
2022/10/20 14:11:42;;;;;;;;;;;20.60;47.00;;;;;;5030682;28;20361;-63
2022/10/20 14:14:10;;;;;;;;;;;20.60;47.00;;;;;;5041548;28;20023;-63
2022/10/20 14:16:38;;;;;;;;;;;20.60;47.10;;;;;;5047466;28;19957;-63
2022/10/20 14:19:07;;;;;;;;;;;20.60;47.00;;;;;;5032633;28;19921;-63
2022/10/20 14:21:40;;;;;;;;;;;20.60;47.10;;;;;;5030690;28;19963;-63
2022/10/20 14:24:11;;;;;;;;;;;20.60;47.10;;;;;;5039473;28;19925;-63
2022/10/20 14:26:42;;;;;;;;;;;20.60;47.10;;;;;;5047090;28;20016;-63
2022/10/20 14:29:09;;;;;;;;;;;20.60;47.10;;;;;;5045305;28;19951;-63